此METAR来自2022年8月16日 14:00. 最近的
罗盘
风向 的 Aérodrome de Castelnaudary-Villeneuve 11/29
风: 3 kt, 1 beaufort

1 kt

3 kt
改变
0 1.000 2.000 3.000 4.000 5.000
METAR LFBA 161200Z AUTO VRB03KT 9999 ///TCU 28/16 Q1007 TEMPO VRB20G30KT 4000 BECMG FEW050CB BKN100

METAR Aérodrome de Castelnaudary-Villeneuve - LFMW

Aérodrome de Castelnaudary-Villeneuve是Castelnaudary Villeneuve,法国中的小机场。 该机场有一条跑道: 11/29. 该领域的国际民航组织标志是LFMW.

这份报告是针对2022年8月16日 14:00, 当地时间在Agen-La Garenne Airport进行的。

机场观察

可变方向的风很小或没有风。

可见度为10 km 或者更多。

有。 没有观察到天花板。

温度和风寒是28 °C。 热指数为28。 露点为16 °C,相对湿度为48%。 海平面上的气压为1007 hPa (QNH)。

发展趋势

  • 暂时的

    可变方向的风很小或没有。 预计30 kt阵风。 可见性变为4 km。

  • 变得

    可变方向的风很小或没有。 几云 积雨云在5.000 ft的高度 和 碎云在10.000 ft的高度.

白天

今天,太阳从07:44升起,在19:43降落。 这适用于Aérodrome de Castelnaudary-Villeneuve,世界夏令时可能有所不同。 当地时间与世界标准时间之间的时差为+2 小时。 夏令时目前正在进行中。

公司介绍

在这个机场,你可以找到飞行俱乐部。 这个机场上的公司有Aéroclub J. Doudies Castelnaudary 和 Aéro-Club des Personnels de l'ENAC de Castelnaudar。

体会

到Vliegles.nl去找飞行课程,跳伞和其他飞行体验。 浏览页面,了解Aérodrome de Castelnaudary-Villeneuve附近所有可用的活动。 你也可以使用搜索功能来寻找你所在地附近的特定飞行课程、跳伞或其他飞行体验。

跑道

Id 标题 侧风 逆风 侧风 %
11/29 110°-290° 3 kt 1 kt 94 %

逆风成分最大的方向会被突出显示,并用于横风计算。 这并不一定意味着这个方向在使用。

温度 & 天气

温度 28 °C
露点 16 °C
相对湿度 48%
热度指数 28 °C
Kp-index 0  

白天

日出
07:02
中午
14:01
日落
21:01

小工具

你想在你的网站上有一个关于Aérodrome de Castelnaudary-Villeneuve的当前航空天气(METAR)的小部件吗?

</> 显示HTML代码

我们和第三方通过cookies跟踪您在我们网站上的上网行为。如果您继续,我们认为您同意我们的cookie政策。 了解更多